Flight Track Log - Related Links

Times and Time Zones

All times are in EDT time to prevent confusion due to time zone crossing. See the AAL2360 flight status page for this flight to view local times or setup timezone preferences in your user account.

Time Position Orientation Groundspeed Altitude Reporting Facility
EDT Latitude Longitude Course Direction KTS MPH feet Rate Location/Type
03:59PM 32.8667 -97.0500 331° Northwest 182 209 2,000  Level Dallas / Fort Worth TRACON
04:00PM 32.8000 -97.0667 192° South 218 251 4,600 2,650 Climbing Dallas / Fort Worth TRACON
04:01PM 32.8745 -96.8000 North  Level FlightAware Approximate
04:01PM 32.7667 -97.1167 232° Southwest 234 269 7,300  Level Dallas / Fort Worth TRACON
04:02PM 32.9991 -96.8094 333° Northwest  Level FlightAware Approximate
04:02PM 32.7667 -97.2000 270° West 266 306 9,500  Level Dallas / Fort Worth TRACON
04:02PM 32.7789 -97.2478 287° West 272 313 10,600 1,841 Climbing Fort Worth Center
04:03PM 33.1110 -96.8795 331° Northwest  Level FlightAware Approximate
04:03PM 32.8478 -97.2775 340° North 338 389 12,200  Level Fort Worth Center
04:04PM 33.2215 -96.9531 331° Northwest  Level FlightAware Approximate
04:04PM 32.9628 -97.2722 North 361 415 14,400  Level Fort Worth Center
04:05PM 33.0567 -97.2522 10° North 375 432 16,600 2,250 Climbing Fort Worth Center
04:06PM 33.1756 -97.2075 17° North 393 452 18,900 2,050 Climbing Fort Worth Center
04:07PM 33.2736 -97.1725 17° North 398 458 20,700 1,750 Climbing Fort Worth Center
04:08PM 33.3986 -97.1297 16° North 415 478 22,400 1,600 Climbing Fort Worth Center
04:09PM 33.5050 -97.1044 11° North 422 486 23,900 1,550 Climbing Fort Worth Center
04:10PM 33.6325 -97.0867 North 422 486 25,500 1,450 Climbing Fort Worth Center
04:11PM 33.7533 -97.0711 North 429 494 26,800 1,300 Climbing Fort Worth Center
04:12PM 33.8764 -97.0558 North 429 494 28,100 1,100 Climbing Fort Worth Center
04:13PM 33.9997 -97.0403 North 434 499 29,000 750 Climbing Fort Worth Center
04:14PM 34.1081 -97.0247 North 444 511 29,600 500 Climbing Fort Worth Center
04:15PM 34.2417 -97.0089 North 451 519 30,000 595 Climbing Fort Worth Center
04:16PM 34.3708 -96.9983 North 462 532 30,800 850 Climbing Fort Worth Center
04:17PM 34.4836 -97.0533 338° Northwest 443 510 31,700 908 Climbing Fort Worth Center
04:18PM 34.5903 -97.1233 332° Northwest 428 493 32,600 650 Climbing Fort Worth Center
04:19PM 34.6969 -97.1911 332° Northwest 428 493 33,000 200 Climbing Fort Worth Center
04:20PM 34.8056 -97.2592 333° Northwest 433 498 33,000  Level Fort Worth Center
04:21PM 34.9119 -97.3300 331° Northwest 433 498 33,000  Level Fort Worth Center
04:22PM 35.0203 -97.3983 333° Northwest 433 498 33,000  Level Fort Worth Center
04:23PM 35.1289 -97.4669 333° Northwest 433 498 33,000  Level Fort Worth Center
04:25PM 35.3233 -97.5875 333° Northwest 442 509 33,000  Level Kansas City Center
04:26PM 35.4503 -97.6125 351° North 467 537 33,000  Level Kansas City Center
04:27PM 35.5819 -97.6081 North 467 537 33,000  Level Kansas City Center
04:28PM 35.7131 -97.5881 North 472 543 33,000  Level Kansas City Center
04:29PM 35.8183 -97.4742 41° Northeast 503 579 33,000  Level Kansas City Center
04:30PM 35.9089 -97.3372 51° Northeast 510 587 33,000  Level Kansas City Center
04:31PM 35.9994 -97.2003 51° Northeast 513 590 33,000  Level Kansas City Center
04:32PM 36.0897 -97.0631 51° Northeast 513 590 33,000  Level Kansas City Center
04:33PM 36.1978 -96.8981 51° Northeast 514 592 33,000  Level Kansas City Center
04:34PM 36.2883 -96.7611 51° Northeast 513 590 33,000  Level Kansas City Center
04:35PM 36.3714 -96.6319 51° Northeast 516 594 33,000  Level Kansas City Center
04:36PM 36.4633 -96.4936 50° Northeast 516 594 33,000  Level Kansas City Center
04:37PM 36.5714 -96.3242 52° Northeast 517 595 33,000  Level Kansas City Center
04:38PM 36.6611 -96.1839 51° Northeast 516 594 33,000  Level Kansas City Center
04:39PM 36.7508 -96.0442 51° Northeast 514 592 33,000  Level Kansas City Center
04:40PM 36.8417 -95.9033 51° Northeast 514 592 33,000  Level Kansas City Center
04:41PM 36.9317 -95.7611 52° Northeast 516 594 33,000  Level Kansas City Center
04:42PM 37.0208 -95.6189 52° Northeast 516 594 33,000  Level Kansas City Center
04:43PM 37.1083 -95.4783 52° Northeast 511 588 33,000  Level Kansas City Center
04:44PM 37.1975 -95.3361 52° Northeast 513 590 33,000  Level Kansas City Center
04:45PM 37.3031 -95.1664 52° Northeast 512 589 33,000  Level Kansas City Center
04:46PM 37.3917 -95.0275 51° Northeast 509 586 33,000  Level Kansas City Center
04:48PM 37.4786 -94.8858 52° Northeast 510 587 33,000  Level Kansas City Center
04:49PM 37.5667 -94.7439 52° Northeast 511 588 33,000  Level Kansas City Center
04:50PM 37.6533 -94.6025 52° Northeast 511 588 33,000  Level Kansas City Center
04:51PM 37.7475 -94.4489 52° Northeast 506 582 33,000  Level Kansas City Center
04:52PM 37.8283 -94.3150 53° Northeast 507 583 33,000  Level Kansas City Center
04:53PM 37.9136 -94.1722 53° Northeast 506 582 33,000 484 Level Kansas City Center
04:54PM 38.0164 -94.0036 52° Northeast 504 580 34,000 960 Climbing Kansas City Center
04:55PM 38.0994 -93.8664 52° Northeast 493 567 35,000 484 Climbing Kansas City Center
04:56PM 38.1803 -93.7300 53° Northeast 485 558 35,000  Level Kansas City Center
04:57PM 38.2628 -93.5906 53° Northeast 487 560 35,000  Level Kansas City Center
04:58PM 38.3472 -93.4497 53° Northeast 494 568 35,000  Level Kansas City Center
04:59PM 38.4308 -93.3100 53° Northeast 494 568 35,000  Level Kansas City Center
05:00PM 38.5133 -93.1683 53° Northeast 493 567 35,000  Level Kansas City Center
05:01PM 38.5981 -93.0261 53° Northeast 496 571 35,000  Level Kansas City Center
05:02PM 38.6983 -92.8542 53° Northeast 499 574 35,000  Level Kansas City Center
05:03PM 38.7822 -92.7086 53° Northeast 502 578 35,000  Level Kansas City Center
05:04PM 38.8667 -92.5619 53° Northeast 505 581 35,000  Level Kansas City Center
05:05PM 38.9497 -92.4153 54° Northeast 504 580 35,000  Level Kansas City Center
05:06PM 39.0333 -92.2689 54° Northeast 504 580 35,000  Level Kansas City Center
05:07PM 39.1172 -92.1233 53° Northeast 504 580 35,000  Level Kansas City Center
05:08PM 39.2006 -91.9753 54° Northeast 505 581 35,000  Level Kansas City Center
05:09PM 39.2869 -91.8258 53° Northeast 510 587 35,000  Level Kansas City Center
05:11PM 39.4200 -91.5931 53° Northeast 509 586 35,000  Level Chicago Center
05:11PM 39.4625 -91.5181 54° Northeast 510 587 35,000  Level Kansas City Center
05:12PM 39.5531 -91.3564 54° Northeast 512 589 35,000  Level Kansas City Center
05:13PM 39.6314 -91.2181 54° Northeast 514 592 35,000  Level Kansas City Center
05:14PM 39.7403 -91.0481 50° Northeast 512 589 35,000 -240 Level Kansas City Center
05:15PM 39.8439 -90.9442 38° Northeast 499 574 34,500 -720 Descending Kansas City Center
05:16PM 39.9528 -90.8356 37° Northeast 495 570 33,500 -738 Descending Kansas City Center
05:17PM 40.0611 -90.7225 39° Northeast 496 571 33,000 -313 Descending Kansas City Center
05:18PM 40.1328 -90.6503 38° Northeast 496 571 33,000  Level Chicago Center
05:19PM 40.2350 -90.5478 37° Northeast 492 566 33,000 -48 Level Chicago Center
05:20PM 40.3675 -90.4122 38° Northeast 502 578 32,900 -960 Descending Chicago Center
05:21PM 40.4764 -90.2997 38° Northeast 499 574 31,000 -1,824 Descending Chicago Center
05:22PM 40.5875 -90.1842 38° Northeast 491 565 29,100 -1,742 Descending Chicago Center
05:23PM 40.6953 -90.0742 38° Northeast 495 570 27,400 -1,645 Descending Chicago Center
05:24PM 40.8003 -89.9614 39° Northeast 492 566 25,700 -1,500 Descending Chicago Center
05:25PM 40.9075 -89.8542 37° Northeast 479 551 24,300 -823 Descending Chicago Center
05:26PM 41.0089 -89.7464 39° Northeast 450 518 24,000 -145 Descending Chicago Center
05:27PM 41.1067 -89.6428 39° Northeast 447 514 24,000 -968 Level Chicago Center
05:28PM 41.1878 -89.5208 49° Northeast 441 507 22,000 -2,129 Descending Chicago Center
05:29PM 41.2558 -89.3519 62° Northeast 431 496 19,600 -2,081 Descending Chicago Center
05:30PM 41.3100 -89.2192 61° Northeast 414 476 17,700 -1,839 Descending Chicago Center
05:31PM 41.3550 -89.1003 63° Northeast 398 458 15,800 -2,226 Descending Chicago Center
05:33PM 41.4139 -88.9533 62° Northeast 375 432 13,100 -2,160 Descending Chicago Center
05:34PM 41.4606 -88.8361 62° Northeast 362 417 11,300 -1,008 Descending Chicago Center
05:35PM 41.5064 -88.7228 62° Northeast 351 404 11,000 -145 Descending Chicago Center
05:36PM 41.5525 -88.6064 62° Northeast 354 407 11,000 -242 Level Chicago Center
05:37PM 41.6114 -88.5006 53° Northeast 360 414 10,500 -484 Descending Chicago Center
05:38PM 41.6744 -88.4008 50° Northeast 351 404 10,000 -242 Descending Chicago Center
05:39PM 41.7500 -88.2811 50° Northeast 351 404 10,000 -97 Level Chicago Center
05:40PM 41.8144 -88.1828 49° Northeast 351 404 9,800 -387 Descending Chicago Center
05:41PM 41.8725 -88.0978 47° Northeast 314 361 9,200 -726 Descending Chicago Center
05:42PM 41.8942 -87.9878 75° East 308 354 8,300 -968 Descending Chicago Center
05:43PM 41.9144 -87.8836 75° East 296 341 7,200 -1,013 Descending Chicago Center
05:43PM 41.9167 -87.8500 85° East 257 296 7,000 -171 Descending Chicago TRACON
05:44PM 41.9333 -87.7667 75° East 254 292 7,000 -365 Level Chicago TRACON
05:45PM 42.0000 -87.7000 37° Northeast 253 291 6,300 -1,000 Descending Chicago TRACON
05:46PM 42.0500 -87.6833 14° North 230 265 5,000 -1,150 Descending Chicago TRACON
05:47PM 42.1000 -87.7333 323° Northwest 198 228 4,000 -1,000 Descending Chicago TRACON

Login

Don't have an account? Register now (free) for customized features, flight alerts, and more!